PAL002 RPLL-RPMD
Flight info
| Callsign | PAL002 |
|---|---|
| Flight time | 1h 28m |
| Altitude | 39000 |
| Route | IPATA2R IPATA B462 MASBA W9A BN W9 RIMAR RIMAR2R |
| Aircraft | A321/M-SDE3FGHIRWY/LB1 |
Departure
| Time | 2026-05-04 14:39 |
|---|---|
| Airport | Ninoy Aquino International Airport (RPLL) |
Arrival
| Time | 2026-05-04 16:07 |
|---|---|
| Airport | Francisco Bangoy International Airport (RPMD) |
| Time | Latitude | Longitude | Altitude | Speed | Heading |
|---|---|---|---|---|---|
| 2026-05-04 14:06 | 14.51415 | 121.01794 | 84 ft | 0 kts | 135° |
| 2026-05-04 14:21 | 14.51402 | 121.01807 | 84 ft | 6 kts | 135° |
| 2026-05-04 14:21 | 14.51365 | 121.01829 | 84 ft | 3 kts | 186° |
| 2026-05-04 14:21 | 14.51350 | 121.01819 | 84 ft | 5 kts | 219° |
| 2026-05-04 14:21 | 14.51347 | 121.01816 | 84 ft | 5 kts | 220° |
| 2026-05-04 14:22 | 14.51316 | 121.01788 | 84 ft | 6 kts | 220° |
| 2026-05-04 14:22 | 14.51281 | 121.01785 | 84 ft | 10 kts | 161° |
| 2026-05-04 14:22 | 14.51200 | 121.01856 | 84 ft | 14 kts | 134° |
| 2026-05-04 14:22 | 14.51142 | 121.01917 | 84 ft | 10 kts | 135° |
| 2026-05-04 14:23 | 14.51021 | 121.01954 | 84 ft | 11 kts | 234° |
| 2026-05-04 14:23 | 14.50977 | 121.01876 | 84 ft | 14 kts | 240° |
| 2026-05-04 14:23 | 14.50920 | 121.01773 | 84 ft | 16 kts | 241° |
| 2026-05-04 14:24 | 14.50862 | 121.01666 | 84 ft | 17 kts | 240° |
| 2026-05-04 14:24 | 14.50789 | 121.01533 | 84 ft | 22 kts | 240° |
| 2026-05-04 14:24 | 14.50704 | 121.01382 | 84 ft | 25 kts | 240° |
| 2026-05-04 14:24 | 14.50611 | 121.01215 | 84 ft | 28 kts | 240° |
| 2026-05-04 14:25 | 14.50509 | 121.01030 | 84 ft | 30 kts | 239° |
| 2026-05-04 14:25 | 14.50282 | 121.00622 | 84 ft | 32 kts | 240° |
| 2026-05-04 14:25 | 14.50170 | 121.00422 | 84 ft | 30 kts | 239° |
| 2026-05-04 14:26 | 14.50067 | 121.00235 | 84 ft | 28 kts | 239° |
| 2026-05-04 14:26 | 14.49976 | 121.00071 | 84 ft | 16 kts | 240° |
| 2026-05-04 14:26 | 14.49936 | 120.99999 | 84 ft | 0 kts | 239° |
| 2026-05-04 14:28 | 14.49932 | 120.99993 | 84 ft | 4 kts | 238° |
| 2026-05-04 14:28 | 14.49890 | 120.99967 | 84 ft | 5 kts | 186° |
| 2026-05-04 14:29 | 14.49879 | 120.99969 | 84 ft | 0 kts | 162° |
| 2026-05-04 14:36 | 14.49862 | 120.99976 | 84 ft | 7 kts | 156° |
| 2026-05-04 14:36 | 14.49808 | 121.00025 | 84 ft | 11 kts | 103° |
| 2026-05-04 14:36 | 14.49822 | 121.00081 | 84 ft | 0 kts | 62° |
| 2026-05-04 14:38 | 14.49823 | 121.00082 | 84 ft | 0 kts | 62° |
| 2026-05-04 14:38 | 14.49827 | 121.00091 | 84 ft | 7 kts | 61° |
| 2026-05-04 14:38 | 14.50029 | 121.00454 | 84 ft | 115 kts | 60° |
| 2026-05-04 14:38 | 14.50559 | 121.01400 | 619 ft | 169 kts | 62° |
| 2026-05-04 14:39 | 14.51145 | 121.02455 | 1839 ft | 180 kts | 63° |
| 2026-05-04 14:39 | 14.51753 | 121.03561 | 3021 ft | 176 kts | 62° |
| 2026-05-04 14:39 | 14.52385 | 121.04712 | 3624 ft | 191 kts | 62° |
| 2026-05-04 14:40 | 14.53827 | 121.07323 | 4692 ft | 230 kts | 62° |
| 2026-05-04 14:40 | 14.54663 | 121.08833 | 5277 ft | 251 kts | 62° |
| 2026-05-04 14:40 | 14.55571 | 121.10484 | 5922 ft | 271 kts | 61° |
| 2026-05-04 14:40 | 14.56529 | 121.12248 | 6545 ft | 288 kts | 65° |
| 2026-05-04 14:41 | 14.57250 | 121.14222 | 7051 ft | 296 kts | 77° |
| 2026-05-04 14:41 | 14.57603 | 121.16369 | 7974 ft | 301 kts | 84° |
| 2026-05-04 14:41 | 14.57244 | 121.20612 | 9829 ft | 306 kts | 123° |
| 2026-05-04 14:42 | 14.54036 | 121.23587 | 11405 ft | 318 kts | 146° |
| 2026-05-04 14:42 | 14.52217 | 121.24958 | 12195 ft | 326 kts | 144° |
| 2026-05-04 14:42 | 14.50394 | 121.26395 | 13040 ft | 331 kts | 143° |
| 2026-05-04 14:43 | 14.48583 | 121.27883 | 13926 ft | 334 kts | 143° |
| 2026-05-04 14:43 | 14.46766 | 121.29412 | 14811 ft | 336 kts | 142° |
| 2026-05-04 14:43 | 14.44941 | 121.30969 | 15684 ft | 339 kts | 142° |
| 2026-05-04 14:43 | 14.43117 | 121.32536 | 16537 ft | 342 kts | 142° |
| 2026-05-04 14:44 | 14.41288 | 121.34112 | 17377 ft | 344 kts | 142° |
| 2026-05-04 14:44 | 14.39433 | 121.35713 | 18208 ft | 347 kts | 142° |
| 2026-05-04 14:44 | 14.37574 | 121.37320 | 19016 ft | 349 kts | 142° |
| 2026-05-04 14:44 | 14.35684 | 121.38953 | 19806 ft | 352 kts | 142° |
| 2026-05-04 14:45 | 14.33784 | 121.40595 | 20572 ft | 354 kts | 142° |
| 2026-05-04 14:45 | 14.31884 | 121.42237 | 21310 ft | 357 kts | 142° |
| 2026-05-04 14:45 | 14.29971 | 121.43890 | 22026 ft | 359 kts | 142° |
| 2026-05-04 14:45 | 14.28028 | 121.45569 | 22710 ft | 362 kts | 142° |
| 2026-05-04 14:46 | 14.26051 | 121.47276 | 23282 ft | 368 kts | 142° |
| 2026-05-04 14:46 | 14.24069 | 121.48988 | 23892 ft | 372 kts | 142° |
| 2026-05-04 14:46 | 14.22063 | 121.50721 | 24525 ft | 375 kts | 142° |
| 2026-05-04 14:46 | 14.20046 | 121.52463 | 25141 ft | 377 kts | 141° |
| 2026-05-04 14:47 | 14.18007 | 121.54224 | 25735 ft | 380 kts | 141° |
| 2026-05-04 14:47 | 14.15980 | 121.55973 | 26306 ft | 383 kts | 141° |
| 2026-05-04 14:47 | 14.13889 | 121.57778 | 26874 ft | 386 kts | 141° |
| 2026-05-04 14:47 | 14.11810 | 121.59573 | 27421 ft | 388 kts | 141° |
| 2026-05-04 14:48 | 14.09746 | 121.61353 | 27942 ft | 391 kts | 141° |
| 2026-05-04 14:48 | 14.07629 | 121.63180 | 28460 ft | 394 kts | 141° |
| 2026-05-04 14:48 | 14.05505 | 121.65012 | 28960 ft | 396 kts | 141° |
| 2026-05-04 14:48 | 14.03356 | 121.66865 | 29442 ft | 399 kts | 141° |
| 2026-05-04 14:49 | 14.01197 | 121.68726 | 29911 ft | 402 kts | 141° |
| 2026-05-04 14:49 | 13.99032 | 121.70593 | 30367 ft | 404 kts | 141° |
| 2026-05-04 14:49 | 13.96846 | 121.72478 | 30810 ft | 407 kts | 141° |
| 2026-05-04 14:49 | 13.94656 | 121.74366 | 31230 ft | 410 kts | 141° |
| 2026-05-04 14:50 | 13.92454 | 121.76263 | 31641 ft | 412 kts | 141° |
| 2026-05-04 14:50 | 13.90240 | 121.78168 | 32042 ft | 415 kts | 141° |
| 2026-05-04 14:50 | 13.88142 | 121.80054 | 32417 ft | 417 kts | 138° |
| 2026-05-04 14:50 | 13.86017 | 121.82185 | 32805 ft | 420 kts | 134° |
| 2026-05-04 14:51 | 13.84049 | 121.84406 | 33175 ft | 423 kts | 131° |
| 2026-05-04 14:51 | 13.82164 | 121.86703 | 33535 ft | 425 kts | 130° |
| 2026-05-04 14:51 | 13.80272 | 121.89030 | 33933 ft | 426 kts | 130° |
| 2026-05-04 14:51 | 13.78384 | 121.91354 | 34418 ft | 425 kts | 130° |
| 2026-05-04 14:52 | 13.76485 | 121.93690 | 34908 ft | 423 kts | 130° |
| 2026-05-04 14:52 | 13.74611 | 121.95990 | 35366 ft | 422 kts | 130° |
| 2026-05-04 14:52 | 13.72731 | 121.98297 | 35809 ft | 420 kts | 130° |
| 2026-05-04 14:52 | 13.70854 | 122.00597 | 36229 ft | 419 kts | 130° |
| 2026-05-04 14:53 | 13.68982 | 122.02889 | 36623 ft | 419 kts | 130° |
| 2026-05-04 14:53 | 13.67110 | 122.05181 | 36989 ft | 418 kts | 130° |
| 2026-05-04 14:53 | 13.65253 | 122.07454 | 37317 ft | 419 kts | 130° |
| 2026-05-04 14:53 | 13.63384 | 122.09740 | 37593 ft | 420 kts | 130° |
| 2026-05-04 14:54 | 13.61496 | 122.12048 | 37845 ft | 422 kts | 130° |
| 2026-05-04 14:54 | 13.59632 | 122.14326 | 38088 ft | 424 kts | 130° |
| 2026-05-04 14:54 | 13.57740 | 122.16638 | 38333 ft | 425 kts | 130° |
| 2026-05-04 14:54 | 13.55816 | 122.18989 | 38578 ft | 426 kts | 130° |
| 2026-05-04 14:55 | 13.53914 | 122.21312 | 38809 ft | 428 kts | 130° |
| 2026-05-04 14:55 | 13.51991 | 122.23660 | 38929 ft | 430 kts | 130° |
| 2026-05-04 14:55 | 13.48152 | 122.28346 | 38937 ft | 430 kts | 130° |
| 2026-05-04 14:56 | 13.44317 | 122.33024 | 38938 ft | 431 kts | 130° |
| 2026-05-04 14:56 | 13.40469 | 122.37715 | 38939 ft | 431 kts | 130° |
| 2026-05-04 14:57 | 13.36611 | 122.42416 | 38939 ft | 430 kts | 130° |
| 2026-05-04 14:57 | 13.32766 | 122.47098 | 38939 ft | 430 kts | 130° |
| 2026-05-04 14:58 | 13.28910 | 122.51792 | 38939 ft | 430 kts | 130° |
| 2026-05-04 14:58 | 13.25064 | 122.56471 | 38939 ft | 430 kts | 130° |
| 2026-05-04 14:59 | 13.21205 | 122.61165 | 38939 ft | 430 kts | 130° |
| 2026-05-04 15:00 | 13.15432 | 122.68179 | 38939 ft | 430 kts | 130° |
| 2026-05-04 15:00 | 13.11595 | 122.72837 | 38939 ft | 430 kts | 130° |
| 2026-05-04 15:01 | 13.05799 | 122.79874 | 38938 ft | 432 kts | 131° |
| 2026-05-04 15:01 | 13.01923 | 122.84574 | 38938 ft | 433 kts | 131° |
| 2026-05-04 15:02 | 12.98043 | 122.89275 | 38938 ft | 435 kts | 131° |
| 2026-05-04 15:02 | 12.94137 | 122.94005 | 38939 ft | 436 kts | 131° |
| 2026-05-04 15:03 | 12.90210 | 122.98759 | 38939 ft | 437 kts | 131° |
| 2026-05-04 15:03 | 12.86294 | 123.03498 | 38939 ft | 437 kts | 130° |
| 2026-05-04 15:04 | 12.82375 | 123.08238 | 38939 ft | 437 kts | 130° |
| 2026-05-04 15:04 | 12.78483 | 123.12942 | 38939 ft | 437 kts | 130° |
| 2026-05-04 15:05 | 12.74556 | 123.17689 | 38939 ft | 437 kts | 130° |
| 2026-05-04 15:05 | 12.70648 | 123.22407 | 38939 ft | 437 kts | 130° |
| 2026-05-04 15:06 | 12.66734 | 123.27133 | 38939 ft | 436 kts | 130° |
| 2026-05-04 15:07 | 12.60848 | 123.34232 | 38939 ft | 436 kts | 130° |
| 2026-05-04 15:07 | 12.56916 | 123.38972 | 38939 ft | 436 kts | 130° |
| 2026-05-04 15:08 | 12.52991 | 123.43703 | 38939 ft | 436 kts | 130° |
| 2026-05-04 15:08 | 12.49094 | 123.48397 | 38939 ft | 436 kts | 130° |
| 2026-05-04 15:09 | 12.45170 | 123.53122 | 38939 ft | 436 kts | 130° |
| 2026-05-04 15:09 | 12.41186 | 123.57797 | 38939 ft | 436 kts | 134° |
| 2026-05-04 15:10 | 12.34399 | 123.63916 | 38939 ft | 436 kts | 144° |
| 2026-05-04 15:11 | 12.26670 | 123.68721 | 38939 ft | 435 kts | 152° |
| 2026-05-04 15:11 | 12.21331 | 123.71652 | 38939 ft | 435 kts | 152° |
| 2026-05-04 15:12 | 12.16023 | 123.74568 | 38939 ft | 435 kts | 152° |
| 2026-05-04 15:12 | 12.10698 | 123.77499 | 38939 ft | 435 kts | 152° |
| 2026-05-04 15:13 | 12.05401 | 123.80418 | 38939 ft | 435 kts | 152° |
| 2026-05-04 15:13 | 12.00103 | 123.83336 | 38939 ft | 435 kts | 152° |
| 2026-05-04 15:14 | 11.94771 | 123.86272 | 38939 ft | 435 kts | 152° |
| 2026-05-04 15:14 | 11.89471 | 123.89189 | 38939 ft | 435 kts | 152° |
| 2026-05-04 15:15 | 11.84142 | 123.92120 | 38939 ft | 435 kts | 152° |
| 2026-05-04 15:15 | 11.78865 | 123.95023 | 38939 ft | 435 kts | 152° |
| 2026-05-04 15:16 | 11.70878 | 123.99413 | 38939 ft | 435 kts | 152° |
| 2026-05-04 15:17 | 11.62950 | 124.03767 | 38939 ft | 435 kts | 152° |
| 2026-05-04 15:17 | 11.55002 | 124.08131 | 38939 ft | 435 kts | 152° |
| 2026-05-04 15:18 | 11.49700 | 124.11039 | 38939 ft | 435 kts | 152° |
| 2026-05-04 15:19 | 11.41777 | 124.15383 | 38939 ft | 435 kts | 152° |
| 2026-05-04 15:19 | 11.33813 | 124.19748 | 38939 ft | 435 kts | 152° |
| 2026-05-04 15:20 | 11.28532 | 124.22641 | 38939 ft | 435 kts | 152° |
| 2026-05-04 15:20 | 11.23214 | 124.25553 | 38939 ft | 435 kts | 152° |
| 2026-05-04 15:21 | 11.17874 | 124.28477 | 38939 ft | 435 kts | 152° |
| 2026-05-04 15:22 | 11.09900 | 124.32842 | 38939 ft | 435 kts | 152° |
| 2026-05-04 15:22 | 11.01867 | 124.37193 | 38939 ft | 435 kts | 152° |
| 2026-05-04 15:23 | 10.96521 | 124.40067 | 38939 ft | 434 kts | 152° |
| 2026-05-04 15:23 | 10.91197 | 124.42932 | 38939 ft | 435 kts | 152° |
| 2026-05-04 15:24 | 10.80501 | 124.48693 | 38939 ft | 435 kts | 152° |
| 2026-05-04 15:25 | 10.75163 | 124.51569 | 38938 ft | 435 kts | 152° |
| 2026-05-04 15:26 | 10.67177 | 124.55905 | 38939 ft | 434 kts | 152° |
| 2026-05-04 15:26 | 10.59175 | 124.60249 | 38939 ft | 434 kts | 152° |
| 2026-05-04 15:27 | 10.51213 | 124.64568 | 38938 ft | 434 kts | 152° |
| 2026-05-04 15:28 | 10.43224 | 124.68900 | 38938 ft | 435 kts | 152° |
| 2026-05-04 15:29 | 10.35229 | 124.73233 | 38939 ft | 434 kts | 152° |
| 2026-05-04 15:30 | 10.16607 | 124.83316 | 38939 ft | 434 kts | 152° |
| 2026-05-04 15:31 | 10.08590 | 124.87653 | 38940 ft | 433 kts | 152° |
| 2026-05-04 15:32 | 9.95382 | 124.94793 | 38939 ft | 431 kts | 152° |
| 2026-05-04 15:34 | 9.82207 | 125.01910 | 38939 ft | 430 kts | 152° |
| 2026-05-04 15:34 | 9.74320 | 125.06165 | 38939 ft | 429 kts | 152° |
| 2026-05-04 15:35 | 9.66439 | 125.10408 | 38939 ft | 429 kts | 152° |
| 2026-05-04 15:36 | 9.58542 | 125.14655 | 38939 ft | 429 kts | 153° |
| 2026-05-04 15:36 | 9.53262 | 125.17465 | 38939 ft | 429 kts | 153° |
| 2026-05-04 15:37 | 9.48017 | 125.20258 | 38939 ft | 429 kts | 153° |
| 2026-05-04 15:37 | 9.42736 | 125.23072 | 38939 ft | 429 kts | 153° |
| 2026-05-04 15:38 | 9.37457 | 125.25884 | 38939 ft | 429 kts | 153° |
| 2026-05-04 15:38 | 9.32196 | 125.28687 | 38939 ft | 428 kts | 153° |
| 2026-05-04 15:39 | 9.26956 | 125.31478 | 38939 ft | 428 kts | 153° |
| 2026-05-04 15:40 | 9.19052 | 125.35686 | 38939 ft | 429 kts | 153° |
| 2026-05-04 15:40 | 9.13772 | 125.38497 | 38939 ft | 429 kts | 153° |
| 2026-05-04 15:41 | 9.08527 | 125.41287 | 38939 ft | 429 kts | 152° |
| 2026-05-04 15:41 | 9.03261 | 125.44086 | 38942 ft | 428 kts | 152° |
| 2026-05-04 15:42 | 8.97762 | 125.46585 | 38948 ft | 430 kts | 159° |
| 2026-05-04 15:42 | 8.92005 | 125.48341 | 38756 ft | 431 kts | 166° |
| 2026-05-04 15:42 | 8.89167 | 125.48908 | 38434 ft | 429 kts | 170° |
| 2026-05-04 15:43 | 8.86214 | 125.49306 | 37972 ft | 427 kts | 173° |
| 2026-05-04 15:43 | 8.83447 | 125.49590 | 37439 ft | 427 kts | 174° |
| 2026-05-04 15:43 | 8.80454 | 125.49884 | 36806 ft | 428 kts | 174° |
| 2026-05-04 15:43 | 8.77446 | 125.50179 | 36145 ft | 428 kts | 174° |
| 2026-05-04 15:44 | 8.74472 | 125.50476 | 35432 ft | 430 kts | 174° |
| 2026-05-04 15:44 | 8.71531 | 125.50772 | 34730 ft | 432 kts | 174° |
| 2026-05-04 15:44 | 8.68533 | 125.51076 | 34013 ft | 433 kts | 173° |
| 2026-05-04 15:44 | 8.65566 | 125.51377 | 33288 ft | 434 kts | 173° |
| 2026-05-04 15:45 | 8.62550 | 125.51685 | 32646 ft | 432 kts | 173° |
| 2026-05-04 15:45 | 8.59610 | 125.51984 | 32205 ft | 426 kts | 174° |
| 2026-05-04 15:45 | 8.56668 | 125.52284 | 31746 ft | 420 kts | 174° |
| 2026-05-04 15:45 | 8.53819 | 125.52573 | 31286 ft | 415 kts | 174° |
| 2026-05-04 15:46 | 8.50967 | 125.52853 | 30810 ft | 410 kts | 174° |
| 2026-05-04 15:46 | 8.48110 | 125.53110 | 30311 ft | 406 kts | 174° |
| 2026-05-04 15:46 | 8.45297 | 125.53359 | 29824 ft | 402 kts | 174° |
| 2026-05-04 15:46 | 8.42550 | 125.53603 | 29351 ft | 398 kts | 174° |
| 2026-05-04 15:47 | 8.39814 | 125.53846 | 28879 ft | 394 kts | 174° |
| 2026-05-04 15:47 | 8.37095 | 125.54089 | 28407 ft | 390 kts | 174° |
| 2026-05-04 15:47 | 8.34390 | 125.54331 | 27935 ft | 386 kts | 174° |
| 2026-05-04 15:47 | 8.31715 | 125.54572 | 27466 ft | 383 kts | 175° |
| 2026-05-04 15:48 | 8.29076 | 125.54808 | 26999 ft | 379 kts | 175° |
| 2026-05-04 15:48 | 8.26479 | 125.55042 | 26541 ft | 376 kts | 175° |
| 2026-05-04 15:48 | 8.21339 | 125.55503 | 25631 ft | 369 kts | 175° |
| 2026-05-04 15:49 | 8.18794 | 125.55731 | 25179 ft | 365 kts | 175° |
| 2026-05-04 15:49 | 8.16287 | 125.55957 | 24731 ft | 362 kts | 175° |
| 2026-05-04 15:49 | 8.13792 | 125.56181 | 24284 ft | 359 kts | 175° |
| 2026-05-04 15:49 | 8.11351 | 125.56400 | 23845 ft | 356 kts | 175° |
| 2026-05-04 15:50 | 8.08882 | 125.56622 | 23398 ft | 353 kts | 175° |
| 2026-05-04 15:50 | 8.06452 | 125.56840 | 22957 ft | 351 kts | 175° |
| 2026-05-04 15:50 | 8.04044 | 125.57056 | 22518 ft | 348 kts | 175° |
| 2026-05-04 15:50 | 8.01655 | 125.57270 | 22080 ft | 346 kts | 176° |
| 2026-05-04 15:51 | 7.99270 | 125.57470 | 21640 ft | 343 kts | 178° |
| 2026-05-04 15:51 | 7.96894 | 125.57419 | 21196 ft | 341 kts | 186° |
| 2026-05-04 15:51 | 7.94576 | 125.57027 | 20717 ft | 339 kts | 194° |
| 2026-05-04 15:51 | 7.92301 | 125.56398 | 20275 ft | 338 kts | 197° |
| 2026-05-04 15:52 | 7.90076 | 125.55734 | 19878 ft | 335 kts | 197° |
| 2026-05-04 15:52 | 7.88481 | 125.55255 | 19581 ft | 334 kts | 197° |
| 2026-05-04 15:52 | 7.85762 | 125.54443 | 19066 ft | 332 kts | 197° |
| 2026-05-04 15:52 | 7.83568 | 125.53792 | 18649 ft | 331 kts | 197° |
| 2026-05-04 15:53 | 7.81341 | 125.53134 | 18221 ft | 329 kts | 197° |
| 2026-05-04 15:53 | 7.79152 | 125.52490 | 17797 ft | 328 kts | 198° |
| 2026-05-04 15:53 | 7.76984 | 125.51853 | 17372 ft | 327 kts | 198° |
| 2026-05-04 15:53 | 7.74790 | 125.51209 | 16939 ft | 326 kts | 198° |
| 2026-05-04 15:54 | 7.72611 | 125.50570 | 16504 ft | 325 kts | 198° |
| 2026-05-04 15:54 | 7.70435 | 125.49932 | 16068 ft | 325 kts | 198° |
| 2026-05-04 15:54 | 7.68276 | 125.49299 | 15632 ft | 324 kts | 198° |
| 2026-05-04 15:54 | 7.66093 | 125.48659 | 15188 ft | 323 kts | 198° |
| 2026-05-04 15:55 | 7.63932 | 125.48024 | 14746 ft | 322 kts | 198° |
| 2026-05-04 15:55 | 7.61799 | 125.47398 | 14272 ft | 323 kts | 198° |
| 2026-05-04 15:55 | 7.59632 | 125.46761 | 13801 ft | 323 kts | 198° |
| 2026-05-04 15:55 | 7.57467 | 125.46127 | 13342 ft | 322 kts | 198° |
| 2026-05-04 15:56 | 7.55316 | 125.45496 | 12889 ft | 322 kts | 198° |
| 2026-05-04 15:56 | 7.53308 | 125.44908 | 12467 ft | 321 kts | 198° |
| 2026-05-04 15:56 | 7.51102 | 125.44263 | 12003 ft | 320 kts | 199° |
| 2026-05-04 15:56 | 7.48942 | 125.43630 | 11553 ft | 319 kts | 198° |
| 2026-05-04 15:57 | 7.46795 | 125.43002 | 11101 ft | 319 kts | 198° |
| 2026-05-04 15:57 | 7.44651 | 125.42381 | 10647 ft | 318 kts | 198° |
| 2026-05-04 15:57 | 7.42523 | 125.41764 | 10198 ft | 317 kts | 198° |
| 2026-05-04 15:57 | 7.40409 | 125.41150 | 9905 ft | 310 kts | 198° |
| 2026-05-04 15:58 | 7.38330 | 125.40543 | 9628 ft | 304 kts | 198° |
| 2026-05-04 15:58 | 7.36309 | 125.39953 | 9293 ft | 300 kts | 198° |
| 2026-05-04 15:58 | 7.34231 | 125.39555 | 8766 ft | 305 kts | 184° |
| 2026-05-04 15:58 | 7.32101 | 125.39717 | 8437 ft | 302 kts | 171° |
| 2026-05-04 15:59 | 7.30028 | 125.40142 | 8035 ft | 301 kts | 168° |
| 2026-05-04 15:59 | 7.27979 | 125.40608 | 7616 ft | 301 kts | 168° |
| 2026-05-04 15:59 | 7.25932 | 125.41069 | 7299 ft | 296 kts | 168° |
| 2026-05-04 15:59 | 7.23914 | 125.41512 | 6994 ft | 292 kts | 169° |
| 2026-05-04 16:00 | 7.21943 | 125.41935 | 6686 ft | 288 kts | 169° |
| 2026-05-04 16:00 | 7.19960 | 125.42357 | 6328 ft | 286 kts | 169° |
| 2026-05-04 16:00 | 7.18002 | 125.42770 | 5965 ft | 284 kts | 169° |
| 2026-05-04 16:00 | 7.16050 | 125.43181 | 5605 ft | 283 kts | 168° |
| 2026-05-04 16:01 | 7.14121 | 125.43587 | 5251 ft | 281 kts | 168° |
| 2026-05-04 16:01 | 7.12191 | 125.43994 | 4915 ft | 279 kts | 168° |
| 2026-05-04 16:01 | 7.10306 | 125.44392 | 4668 ft | 273 kts | 168° |
| 2026-05-04 16:01 | 7.08457 | 125.44782 | 4446 ft | 267 kts | 168° |
| 2026-05-04 16:02 | 7.06689 | 125.45358 | 4223 ft | 262 kts | 151° |
| 2026-05-04 16:02 | 7.05216 | 125.46418 | 3951 ft | 259 kts | 140° |
| 2026-05-04 16:02 | 7.02507 | 125.48815 | 3461 ft | 252 kts | 138° |
| 2026-05-04 16:03 | 7.01245 | 125.49989 | 3267 ft | 244 kts | 129° |
| 2026-05-04 16:03 | 7.00609 | 125.51492 | 3036 ft | 226 kts | 89° |
| 2026-05-04 16:03 | 7.01093 | 125.52939 | 2932 ft | 212 kts | 47° |
| 2026-05-04 16:03 | 7.02228 | 125.53809 | 2869 ft | 196 kts | 31° |
| 2026-05-04 16:04 | 7.03371 | 125.54590 | 2504 ft | 198 kts | 35° |
| 2026-05-04 16:04 | 7.05312 | 125.56328 | 1969 ft | 169 kts | 44° |
| 2026-05-04 16:04 | 7.06080 | 125.57141 | 1730 ft | 153 kts | 46° |
| 2026-05-04 16:05 | 7.06773 | 125.57910 | 1518 ft | 138 kts | 47° |
| 2026-05-04 16:05 | 7.07389 | 125.58610 | 1342 ft | 130 kts | 47° |
| 2026-05-04 16:05 | 7.08585 | 125.59985 | 1021 ft | 128 kts | 47° |
| 2026-05-04 16:06 | 7.09171 | 125.60659 | 885 ft | 128 kts | 47° |
| 2026-05-04 16:06 | 7.10743 | 125.62477 | 387 ft | 127 kts | 48° |
| 2026-05-04 16:07 | 7.11520 | 125.63376 | 217 ft | 127 kts | 48° |
| 2026-05-04 16:07 | 7.12784 | 125.64846 | 104 ft | 23 kts | 49° |
| 2026-05-04 16:08 | 7.12855 | 125.64913 | 104 ft | 6 kts | 20° |
| 2026-05-04 16:08 | 7.12985 | 125.64737 | 104 ft | 17 kts | 231° |
| 2026-05-04 16:09 | 7.12827 | 125.64551 | 104 ft | 6 kts | 247° |
| 2026-05-04 16:09 | 7.12869 | 125.64480 | 104 ft | 2 kts | 319° |
| 2026-05-04 16:10 | 7.12873 | 125.64476 | 104 ft | 0 kts | 319° |